sensor_id;sensor_type;location;lat;lon;timestamp;temperature;humidity
32614;DHT22;19031;51.400;6.770;2023-04-06T00:01:34;2.20;99.90
32614;DHT22;19031;51.400;6.770;2023-04-06T00:03:59;2.20;99.90
32614;DHT22;19031;51.400;6.770;2023-04-06T00:06:25;2.20;99.90
32614;DHT22;19031;51.400;6.770;2023-04-06T00:08:52;2.10;99.90
32614;DHT22;19031;51.400;6.770;2023-04-06T00:11:17;2.10;99.90
32614;DHT22;19031;51.400;6.770;2023-04-06T00:13:43;2.10;99.90
32614;DHT22;19031;51.400;6.770;2023-04-06T00:16:09;2.00;99.90
32614;DHT22;19031;51.400;6.770;2023-04-06T00:18:34;2.10;99.90
32614;DHT22;19031;51.400;6.770;2023-04-06T00:21:00;2.10;99.90
32614;DHT22;19031;51.400;6.770;2023-04-06T00:23:26;2.10;99.90
32614;DHT22;19031;51.400;6.770;2023-04-06T00:25:51;2.00;99.90
32614;DHT22;19031;51.400;6.770;2023-04-06T00:28:17;2.00;99.90
32614;DHT22;19031;51.400;6.770;2023-04-06T00:30:43;2.00;99.90
32614;DHT22;19031;51.400;6.770;2023-04-06T00:33:08;1.90;99.90
32614;DHT22;19031;51.400;6.770;2023-04-06T00:35:34;1.90;99.90
32614;DHT22;19031;51.400;6.770;2023-04-06T00:38:00;1.80;99.90
32614;DHT22;19031;51.400;6.770;2023-04-06T00:40:26;1.80;99.90
32614;DHT22;19031;51.400;6.770;2023-04-06T00:42:54;1.70;99.90
32614;DHT22;19031;51.400;6.770;2023-04-06T00:45:20;1.70;99.90
32614;DHT22;19031;51.400;6.770;2023-04-06T00:47:45;1.70;99.90
32614;DHT22;19031;51.400;6.770;2023-04-06T00:50:11;1.70;99.90
32614;DHT22;19031;51.400;6.770;2023-04-06T00:52:37;1.60;99.90
32614;DHT22;19031;51.400;6.770;2023-04-06T00:55:03;1.60;99.90
32614;DHT22;19031;51.400;6.770;2023-04-06T00:57:29;1.60;99.90
32614;DHT22;19031;51.400;6.770;2023-04-06T00:59:55;1.50;99.90
32614;DHT22;19031;51.400;6.770;2023-04-06T01:02:21;1.50;99.90
32614;DHT22;19031;51.400;6.770;2023-04-06T01:04:47;1.40;99.90
32614;DHT22;19031;51.400;6.770;2023-04-06T01:07:12;1.50;99.90
32614;DHT22;19031;51.400;6.770;2023-04-06T01:09:38;1.40;99.90
32614;DHT22;19031;51.400;6.770;2023-04-06T01:12:06;1.30;99.90
32614;DHT22;19031;51.400;6.770;2023-04-06T01:14:32;1.30;99.90
32614;DHT22;19031;51.400;6.770;2023-04-06T01:16:58;1.30;99.90
32614;DHT22;19031;51.400;6.770;2023-04-06T01:19:25;1.30;99.90
32614;DHT22;19031;51.400;6.770;2023-04-06T01:21:51;1.30;99.90
32614;DHT22;19031;51.400;6.770;2023-04-06T01:24:18;1.30;99.90
32614;DHT22;19031;51.400;6.770;2023-04-06T01:26:44;1.20;99.90
32614;DHT22;19031;51.400;6.770;2023-04-06T01:29:11;1.20;99.90
32614;DHT22;19031;51.400;6.770;2023-04-06T01:31:36;1.20;99.90
32614;DHT22;19031;51.400;6.770;2023-04-06T01:34:02;1.20;99.90
32614;DHT22;19031;51.400;6.770;2023-04-06T01:36:28;1.20;99.90
32614;DHT22;19031;51.400;6.770;2023-04-06T01:38:53;1.10;99.90
32614;DHT22;19031;51.400;6.770;2023-04-06T01:41:19;1.10;99.90
32614;DHT22;19031;51.400;6.770;2023-04-06T01:43:46;1.10;99.90
32614;DHT22;19031;51.400;6.770;2023-04-06T01:46:12;1.10;99.90
32614;DHT22;19031;51.400;6.770;2023-04-06T01:48:38;1.00;99.90
32614;DHT22;19031;51.400;6.770;2023-04-06T01:51:03;1.00;99.90
32614;DHT22;19031;51.400;6.770;2023-04-06T01:53:29;1.00;99.90
32614;DHT22;19031;51.400;6.770;2023-04-06T01:55:55;1.00;99.90
32614;DHT22;19031;51.400;6.770;2023-04-06T01:58:20;1.00;99.90
32614;DHT22;19031;51.400;6.770;2023-04-06T02:00:46;0.90;99.90
32614;DHT22;19031;51.400;6.770;2023-04-06T02:03:11;0.90;99.90
32614;DHT22;19031;51.400;6.770;2023-04-06T02:05:37;0.80;99.90
32614;DHT22;19031;51.400;6.770;2023-04-06T02:08:06;0.80;99.90
32614;DHT22;19031;51.400;6.770;2023-04-06T02:10:33;0.90;99.90
32614;DHT22;19031;51.400;6.770;2023-04-06T02:12:58;0.90;99.90
32614;DHT22;19031;51.400;6.770;2023-04-06T02:15:24;0.90;99.90
32614;DHT22;19031;51.400;6.770;2023-04-06T02:17:51;0.90;99.90
32614;DHT22;19031;51.400;6.770;2023-04-06T02:20:17;0.80;99.90
32614;DHT22;19031;51.400;6.770;2023-04-06T02:22:43;0.90;99.90
32614;DHT22;19031;51.400;6.770;2023-04-06T02:25:08;0.80;99.90
32614;DHT22;19031;51.400;6.770;2023-04-06T02:27:35;0.80;99.90
32614;DHT22;19031;51.400;6.770;2023-04-06T02:30:02;0.80;99.90
32614;DHT22;19031;51.400;6.770;2023-04-06T02:32:27;0.80;99.90
32614;DHT22;19031;51.400;6.770;2023-04-06T02:34:53;0.80;99.90
32614;DHT22;19031;51.400;6.770;2023-04-06T02:37:18;0.80;99.90
32614;DHT22;19031;51.400;6.770;2023-04-06T02:39:45;0.80;99.90
32614;DHT22;19031;51.400;6.770;2023-04-06T02:42:10;0.80;99.90
32614;DHT22;19031;51.400;6.770;2023-04-06T02:44:36;0.80;99.90
32614;DHT22;19031;51.400;6.770;2023-04-06T02:47:02;0.80;99.90
32614;DHT22;19031;51.400;6.770;2023-04-06T02:49:28;0.80;99.90
32614;DHT22;19031;51.400;6.770;2023-04-06T02:51:53;0.70;99.90
32614;DHT22;19031;51.400;6.770;2023-04-06T02:54:19;0.80;99.90
32614;DHT22;19031;51.400;6.770;2023-04-06T02:56:44;0.70;99.90
32614;DHT22;19031;51.400;6.770;2023-04-06T02:59:10;0.70;99.90
32614;DHT22;19031;51.400;6.770;2023-04-06T03:01:36;0.70;99.90
32614;DHT22;19031;51.400;6.770;2023-04-06T03:04:02;0.70;99.90
32614;DHT22;19031;51.400;6.770;2023-04-06T03:06:27;0.70;99.90
32614;DHT22;19031;51.400;6.770;2023-04-06T03:08:53;0.70;99.90
32614;DHT22;19031;51.400;6.770;2023-04-06T03:11:19;0.70;99.90
32614;DHT22;19031;51.400;6.770;2023-04-06T03:13:44;0.70;99.90
32614;DHT22;19031;51.400;6.770;2023-04-06T03:16:10;0.70;99.90
32614;DHT22;19031;51.400;6.770;2023-04-06T03:18:36;0.70;99.90
32614;DHT22;19031;51.400;6.770;2023-04-06T03:21:01;0.60;99.90
32614;DHT22;19031;51.400;6.770;2023-04-06T03:23:27;0.60;99.90
32614;DHT22;19031;51.400;6.770;2023-04-06T03:25:53;0.70;99.90
32614;DHT22;19031;51.400;6.770;2023-04-06T03:28:18;0.60;99.90
32614;DHT22;19031;51.400;6.770;2023-04-06T03:30:45;0.60;99.90
32614;DHT22;19031;51.400;6.770;2023-04-06T03:33:10;0.60;99.90
32614;DHT22;19031;51.400;6.770;2023-04-06T03:35:36;0.60;99.90
32614;DHT22;19031;51.400;6.770;2023-04-06T03:38:03;0.60;99.90
32614;DHT22;19031;51.400;6.770;2023-04-06T03:40:29;0.60;99.90
32614;DHT22;19031;51.400;6.770;2023-04-06T03:42:54;0.60;99.90
32614;DHT22;19031;51.400;6.770;2023-04-06T03:45:20;0.50;99.90
32614;DHT22;19031;51.400;6.770;2023-04-06T03:47:46;0.60;99.90
32614;DHT22;19031;51.400;6.770;2023-04-06T03:50:11;0.60;99.90
32614;DHT22;19031;51.400;6.770;2023-04-06T03:52:37;0.60;99.90
32614;DHT22;19031;51.400;6.770;2023-04-06T03:55:03;0.60;99.90
32614;DHT22;19031;51.400;6.770;2023-04-06T03:57:28;0.60;99.90
32614;DHT22;19031;51.400;6.770;2023-04-06T03:59:54;0.50;99.90
32614;DHT22;19031;51.400;6.770;2023-04-06T04:02:20;0.60;99.90
32614;DHT22;19031;51.400;6.770;2023-04-06T04:04:45;0.60;99.90
32614;DHT22;19031;51.400;6.770;2023-04-06T04:07:11;0.50;99.90
32614;DHT22;19031;51.400;6.770;2023-04-06T04:09:37;0.50;99.90
32614;DHT22;19031;51.400;6.770;2023-04-06T04:12:02;0.50;99.90
32614;DHT22;19031;51.400;6.770;2023-04-06T04:14:28;0.50;99.90
32614;DHT22;19031;51.400;6.770;2023-04-06T04:16:54;0.50;99.90
32614;DHT22;19031;51.400;6.770;2023-04-06T04:19:19;0.60;99.90
32614;DHT22;19031;51.400;6.770;2023-04-06T04:21:46;0.60;99.90
32614;DHT22;19031;51.400;6.770;2023-04-06T04:24:12;0.50;99.90
32614;DHT22;19031;51.400;6.770;2023-04-06T04:26:39;0.50;99.90
32614;DHT22;19031;51.400;6.770;2023-04-06T04:29:05;0.40;99.90
32614;DHT22;19031;51.400;6.770;2023-04-06T04:31:31;0.50;99.90
32614;DHT22;19031;51.400;6.770;2023-04-06T04:33:58;0.50;99.90
32614;DHT22;19031;51.400;6.770;2023-04-06T04:36:23;0.50;99.90
32614;DHT22;19031;51.400;6.770;2023-04-06T04:38:51;0.60;99.90
32614;DHT22;19031;51.400;6.770;2023-04-06T04:41:17;0.50;99.90
32614;DHT22;19031;51.400;6.770;2023-04-06T04:43:43;0.50;99.90
32614;DHT22;19031;51.400;6.770;2023-04-06T04:46:08;0.50;99.90
32614;DHT22;19031;51.400;6.770;2023-04-06T04:48:34;0.50;99.90
32614;DHT22;19031;51.400;6.770;2023-04-06T04:51:00;0.50;99.90
32614;DHT22;19031;51.400;6.770;2023-04-06T04:53:26;0.50;99.90
32614;DHT22;19031;51.400;6.770;2023-04-06T04:55:52;0.60;99.90
32614;DHT22;19031;51.400;6.770;2023-04-06T04:58:17;0.50;99.90
32614;DHT22;19031;51.400;6.770;2023-04-06T05:00:45;0.60;99.90
32614;DHT22;19031;51.400;6.770;2023-04-06T05:03:20;0.60;99.90
32614;DHT22;19031;51.400;6.770;2023-04-06T05:05:46;0.60;99.90
32614;DHT22;19031;51.400;6.770;2023-04-06T05:08:12;0.60;99.90
32614;DHT22;19031;51.400;6.770;2023-04-06T05:10:38;0.70;99.90
32614;DHT22;19031;51.400;6.770;2023-04-06T05:13:03;0.70;99.90
32614;DHT22;19031;51.400;6.770;2023-04-06T05:15:29;0.70;99.90
32614;DHT22;19031;51.400;6.770;2023-04-06T05:17:55;0.70;99.90
32614;DHT22;19031;51.400;6.770;2023-04-06T05:20:21;0.70;99.90
32614;DHT22;19031;51.400;6.770;2023-04-06T05:22:47;0.80;99.90
32614;DHT22;19031;51.400;6.770;2023-04-06T05:25:13;0.70;99.90
32614;DHT22;19031;51.400;6.770;2023-04-06T05:27:39;0.80;99.90
32614;DHT22;19031;51.400;6.770;2023-04-06T05:30:06;0.80;99.90
32614;DHT22;19031;51.400;6.770;2023-04-06T05:32:32;0.90;99.90
32614;DHT22;19031;51.400;6.770;2023-04-06T05:34:58;1.00;99.90
32614;DHT22;19031;51.400;6.770;2023-04-06T05:37:24;1.10;99.90
32614;DHT22;19031;51.400;6.770;2023-04-06T05:39:49;1.20;99.90
32614;DHT22;19031;51.400;6.770;2023-04-06T05:42:15;1.20;99.90
32614;DHT22;19031;51.400;6.770;2023-04-06T05:44:42;1.40;99.90
32614;DHT22;19031;51.400;6.770;2023-04-06T05:47:07;1.40;99.90
32614;DHT22;19031;51.400;6.770;2023-04-06T05:49:33;1.50;99.90
32614;DHT22;19031;51.400;6.770;2023-04-06T05:52:00;1.60;99.90
32614;DHT22;19031;51.400;6.770;2023-04-06T05:54:26;1.60;99.90
32614;DHT22;19031;51.400;6.770;2023-04-06T05:56:51;1.70;99.90
32614;DHT22;19031;51.400;6.770;2023-04-06T05:59:17;1.90;99.90
32614;DHT22;19031;51.400;6.770;2023-04-06T06:01:42;2.00;99.90
32614;DHT22;19031;51.400;6.770;2023-04-06T06:04:08;2.10;99.90
32614;DHT22;19031;51.400;6.770;2023-04-06T06:06:33;2.20;99.90
32614;DHT22;19031;51.400;6.770;2023-04-06T06:08:59;2.30;99.90
32614;DHT22;19031;51.400;6.770;2023-04-06T06:11:26;2.40;99.90
32614;DHT22;19031;51.400;6.770;2023-04-06T06:13:52;2.60;99.90
32614;DHT22;19031;51.400;6.770;2023-04-06T06:16:18;2.70;99.90
32614;DHT22;19031;51.400;6.770;2023-04-06T06:18:45;2.90;99.90
32614;DHT22;19031;51.400;6.770;2023-04-06T06:21:10;3.00;99.90
32614;DHT22;19031;51.400;6.770;2023-04-06T06:23:39;3.10;99.90
32614;DHT22;19031;51.400;6.770;2023-04-06T06:26:05;3.30;99.90
32614;DHT22;19031;51.400;6.770;2023-04-06T06:28:31;3.50;99.90
32614;DHT22;19031;51.400;6.770;2023-04-06T06:30:57;3.70;99.90
32614;DHT22;19031;51.400;6.770;2023-04-06T06:33:23;3.80;99.90
32614;DHT22;19031;51.400;6.770;2023-04-06T06:35:49;4.00;99.90
32614;DHT22;19031;51.400;6.770;2023-04-06T06:38:15;4.30;99.90
32614;DHT22;19031;51.400;6.770;2023-04-06T06:40:41;4.30;99.90
32614;DHT22;19031;51.400;6.770;2023-04-06T06:43:06;4.60;99.90
32614;DHT22;19031;51.400;6.770;2023-04-06T06:45:32;4.80;99.90
32614;DHT22;19031;51.400;6.770;2023-04-06T06:47:58;4.90;99.90
32614;DHT22;19031;51.400;6.770;2023-04-06T06:50:24;5.20;99.90
32614;DHT22;19031;51.400;6.770;2023-04-06T06:52:50;5.40;99.90
32614;DHT22;19031;51.400;6.770;2023-04-06T06:55:15;5.70;99.90
32614;DHT22;19031;51.400;6.770;2023-04-06T06:57:41;5.90;99.90
32614;DHT22;19031;51.400;6.770;2023-04-06T07:00:09;6.10;99.90
32614;DHT22;19031;51.400;6.770;2023-04-06T07:02:36;6.30;99.90
32614;DHT22;19031;51.400;6.770;2023-04-06T07:05:02;6.50;99.90
32614;DHT22;19031;51.400;6.770;2023-04-06T07:07:28;6.70;99.90
32614;DHT22;19031;51.400;6.770;2023-04-06T07:09:54;6.90;99.90
32614;DHT22;19031;51.400;6.770;2023-04-06T07:12:20;7.10;99.90
32614;DHT22;19031;51.400;6.770;2023-04-06T07:14:45;7.30;99.90
32614;DHT22;19031;51.400;6.770;2023-04-06T07:17:11;7.50;99.90
32614;DHT22;19031;51.400;6.770;2023-04-06T07:19:37;7.70;99.90
32614;DHT22;19031;51.400;6.770;2023-04-06T07:22:02;8.00;99.90
32614;DHT22;19031;51.400;6.770;2023-04-06T07:24:29;8.30;99.90
32614;DHT22;19031;51.400;6.770;2023-04-06T07:26:55;8.60;99.90
32614;DHT22;19031;51.400;6.770;2023-04-06T07:29:22;9.00;99.90
32614;DHT22;19031;51.400;6.770;2023-04-06T07:31:48;9.30;99.90
32614;DHT22;19031;51.400;6.770;2023-04-06T07:34:14;9.50;99.90
32614;DHT22;19031;51.400;6.770;2023-04-06T07:36:40;9.80;99.90
32614;DHT22;19031;51.400;6.770;2023-04-06T07:39:06;9.70;99.90
32614;DHT22;19031;51.400;6.770;2023-04-06T07:41:32;9.70;99.90
32614;DHT22;19031;51.400;6.770;2023-04-06T07:43:58;9.80;99.90
32614;DHT22;19031;51.400;6.770;2023-04-06T07:46:24;9.70;99.90
32614;DHT22;19031;51.400;6.770;2023-04-06T07:48:49;9.90;99.90
32614;DHT22;19031;51.400;6.770;2023-04-06T07:51:16;10.00;99.90
32614;DHT22;19031;51.400;6.770;2023-04-06T07:53:44;10.30;99.90
32614;DHT22;19031;51.400;6.770;2023-04-06T07:56:10;10.60;99.90
32614;DHT22;19031;51.400;6.770;2023-04-06T07:58:35;11.10;99.90
32614;DHT22;19031;51.400;6.770;2023-04-06T08:01:01;11.50;99.90
32614;DHT22;19031;51.400;6.770;2023-04-06T08:03:27;11.70;98.70
32614;DHT22;19031;51.400;6.770;2023-04-06T08:05:53;12.00;98.50
32614;DHT22;19031;51.400;6.770;2023-04-06T08:08:21;12.20;97.40
32614;DHT22;19031;51.400;6.770;2023-04-06T08:10:48;12.50;96.60
32614;DHT22;19031;51.400;6.770;2023-04-06T08:13:14;13.00;96.10
32614;DHT22;19031;51.400;6.770;2023-04-06T08:15:41;13.20;94.90
32614;DHT22;19031;51.400;6.770;2023-04-06T08:18:07;13.20;92.80
32614;DHT22;19031;51.400;6.770;2023-04-06T08:20:33;13.40;93.10
32614;DHT22;19031;51.400;6.770;2023-04-06T08:22:59;13.30;92.20
32614;DHT22;19031;51.400;6.770;2023-04-06T08:25:25;13.20;93.20
32614;DHT22;19031;51.400;6.770;2023-04-06T08:27:51;13.40;93.70
32614;DHT22;19031;51.400;6.770;2023-04-06T08:30:17;13.70;92.90
32614;DHT22;19031;51.400;6.770;2023-04-06T08:32:47;13.90;93.70
32614;DHT22;19031;51.400;6.770;2023-04-06T08:35:12;13.80;90.60
32614;DHT22;19031;51.400;6.770;2023-04-06T08:37:38;13.90;92.10
32614;DHT22;19031;51.400;6.770;2023-04-06T08:40:04;13.90;91.60
32614;DHT22;19031;51.400;6.770;2023-04-06T08:42:33;14.10;91.20
32614;DHT22;19031;51.400;6.770;2023-04-06T08:44:59;14.00;90.10
32614;DHT22;19031;51.400;6.770;2023-04-06T08:47:26;14.20;90.10
32614;DHT22;19031;51.400;6.770;2023-04-06T08:49:53;14.20;88.20
32614;DHT22;19031;51.400;6.770;2023-04-06T08:52:19;14.40;90.20
32614;DHT22;19031;51.400;6.770;2023-04-06T08:54:45;14.60;88.50
32614;DHT22;19031;51.400;6.770;2023-04-06T08:57:11;14.80;88.50
32614;DHT22;19031;51.400;6.770;2023-04-06T08:59:41;15.00;83.30
32614;DHT22;19031;51.400;6.770;2023-04-06T09:02:07;15.10;83.20
32614;DHT22;19031;51.400;6.770;2023-04-06T09:04:40;15.20;80.80
32614;DHT22;19031;51.400;6.770;2023-04-06T09:07:07;15.60;81.10
32614;DHT22;19031;51.400;6.770;2023-04-06T09:09:32;15.80;78.80
32614;DHT22;19031;51.400;6.770;2023-04-06T09:11:58;15.70;78.40
32614;DHT22;19031;51.400;6.770;2023-04-06T09:14:35;15.90;78.50
32614;DHT22;19031;51.400;6.770;2023-04-06T09:17:01;16.00;75.70
32614;DHT22;19031;51.400;6.770;2023-04-06T09:19:27;16.30;76.80
32614;DHT22;19031;51.400;6.770;2023-04-06T09:22:05;16.30;74.50
32614;DHT22;19031;51.400;6.770;2023-04-06T09:27:13;16.20;72.50
32614;DHT22;19031;51.400;6.770;2023-04-06T09:29:41;15.90;74.80
32614;DHT22;19031;51.400;6.770;2023-04-06T09:32:08;16.00;72.80
32614;DHT22;19031;51.400;6.770;2023-04-06T09:34:40;15.70;72.50
32614;DHT22;19031;51.400;6.770;2023-04-06T09:37:15;15.50;75.10
32614;DHT22;19031;51.400;6.770;2023-04-06T09:39:41;15.80;74.70
32614;DHT22;19031;51.400;6.770;2023-04-06T09:42:07;15.80;72.30
32614;DHT22;19031;51.400;6.770;2023-04-06T09:44:33;15.90;73.60
32614;DHT22;19031;51.400;6.770;2023-04-06T09:46:58;16.10;72.00
32614;DHT22;19031;51.400;6.770;2023-04-06T09:49:27;16.00;72.70
32614;DHT22;19031;51.400;6.770;2023-04-06T09:52:02;16.40;71.40
32614;DHT22;19031;51.400;6.770;2023-04-06T09:54:29;16.70;71.60
32614;DHT22;19031;51.400;6.770;2023-04-06T09:57:24;16.40;69.00
32614;DHT22;19031;51.400;6.770;2023-04-06T10:00:01;16.30;69.50
32614;DHT22;19031;51.400;6.770;2023-04-06T10:03:17;16.50;69.00
32614;DHT22;19031;51.400;6.770;2023-04-06T10:05:50;16.50;67.30
32614;DHT22;19031;51.400;6.770;2023-04-06T10:08:18;16.70;70.50
32614;DHT22;19031;51.400;6.770;2023-04-06T10:10:44;16.90;70.40
32614;DHT22;19031;51.400;6.770;2023-04-06T10:13:11;17.20;69.90
32614;DHT22;19031;51.400;6.770;2023-04-06T10:15:38;17.30;67.10
32614;DHT22;19031;51.400;6.770;2023-04-06T10:18:06;17.20;68.10
32614;DHT22;19031;51.400;6.770;2023-04-06T10:20:38;17.40;70.30
32614;DHT22;19031;51.400;6.770;2023-04-06T10:25:53;17.80;66.20
32614;DHT22;19031;51.400;6.770;2023-04-06T10:28:19;17.90;66.70
32614;DHT22;19031;51.400;6.770;2023-04-06T10:30:45;18.00;69.10
32614;DHT22;19031;51.400;6.770;2023-04-06T10:33:18;18.30;68.10
32614;DHT22;19031;51.400;6.770;2023-04-06T10:35:44;18.00;65.90
32614;DHT22;19031;51.400;6.770;2023-04-06T10:38:11;18.10;67.40
32614;DHT22;19031;51.400;6.770;2023-04-06T10:40:41;18.10;64.90
32614;DHT22;19031;51.400;6.770;2023-04-06T10:43:12;17.90;65.90
32614;DHT22;19031;51.400;6.770;2023-04-06T10:45:38;18.10;68.70
32614;DHT22;19031;51.400;6.770;2023-04-06T10:48:17;18.10;66.40
32614;DHT22;19031;51.400;6.770;2023-04-06T10:50:48;18.20;66.80
32614;DHT22;19031;51.400;6.770;2023-04-06T10:53:25;18.10;65.90
32614;DHT22;19031;51.400;6.770;2023-04-06T10:55:55;17.90;67.10
32614;DHT22;19031;51.400;6.770;2023-04-06T10:58:25;17.30;68.20
32614;DHT22;19031;51.400;6.770;2023-04-06T11:00:51;17.20;69.90
32614;DHT22;19031;51.400;6.770;2023-04-06T11:03:17;17.30;69.90
32614;DHT22;19031;51.400;6.770;2023-04-06T11:05:47;17.40;70.00
32614;DHT22;19031;51.400;6.770;2023-04-06T11:08:29;17.50;70.00
32614;DHT22;19031;51.400;6.770;2023-04-06T11:11:08;17.70;71.30
32614;DHT22;19031;51.400;6.770;2023-04-06T11:13:57;17.60;69.90
32614;DHT22;19031;51.400;6.770;2023-04-06T11:16:31;17.40;70.60
32614;DHT22;19031;51.400;6.770;2023-04-06T11:18:59;17.40;70.70
32614;DHT22;19031;51.400;6.770;2023-04-06T11:24:10;17.40;70.30
32614;DHT22;19031;51.400;6.770;2023-04-06T11:26:45;17.00;72.60
32614;DHT22;19031;51.400;6.770;2023-04-06T11:29:16;16.90;73.20
32614;DHT22;19031;51.400;6.770;2023-04-06T11:34:13;16.20;76.00
32614;DHT22;19031;51.400;6.770;2023-04-06T11:36:42;16.10;74.70
32614;DHT22;19031;51.400;6.770;2023-04-06T11:39:09;16.00;75.50
32614;DHT22;19031;51.400;6.770;2023-04-06T11:41:34;15.70;77.70
32614;DHT22;19031;51.400;6.770;2023-04-06T11:44:01;15.60;80.70
32614;DHT22;19031;51.400;6.770;2023-04-06T11:46:30;15.40;81.60
32614;DHT22;19031;51.400;6.770;2023-04-06T11:49:00;15.40;82.70
32614;DHT22;19031;51.400;6.770;2023-04-06T11:51:26;15.40;86.50
32614;DHT22;19031;51.400;6.770;2023-04-06T11:53:52;15.50;86.50
32614;DHT22;19031;51.400;6.770;2023-04-06T11:56:45;15.70;86.40
32614;DHT22;19031;51.400;6.770;2023-04-06T11:59:11;15.40;85.40
32614;DHT22;19031;51.400;6.770;2023-04-06T12:01:45;15.50;87.20
32614;DHT22;19031;51.400;6.770;2023-04-06T12:04:10;15.80;87.90
32614;DHT22;19031;51.400;6.770;2023-04-06T12:06:36;16.00;88.60
32614;DHT22;19031;51.400;6.770;2023-04-06T12:09:01;15.80;85.00
32614;DHT22;19031;51.400;6.770;2023-04-06T12:11:27;15.70;87.90
32614;DHT22;19031;51.400;6.770;2023-04-06T12:13:53;15.70;87.80
32614;DHT22;19031;51.400;6.770;2023-04-06T12:16:19;15.70;88.50
32614;DHT22;19031;51.400;6.770;2023-04-06T12:18:44;15.80;88.90
32614;DHT22;19031;51.400;6.770;2023-04-06T12:21:11;15.90;88.10
32614;DHT22;19031;51.400;6.770;2023-04-06T12:23:37;16.00;86.90
32614;DHT22;19031;51.400;6.770;2023-04-06T12:26:03;15.80;88.60
32614;DHT22;19031;51.400;6.770;2023-04-06T12:28:28;16.10;86.70
32614;DHT22;19031;51.400;6.770;2023-04-06T12:30:54;16.20;89.40
32614;DHT22;19031;51.400;6.770;2023-04-06T12:33:20;16.40;86.40
32614;DHT22;19031;51.400;6.770;2023-04-06T12:35:46;16.60;87.50
32614;DHT22;19031;51.400;6.770;2023-04-06T12:38:12;16.40;87.20
32614;DHT22;19031;51.400;6.770;2023-04-06T12:40:38;16.60;86.70
32614;DHT22;19031;51.400;6.770;2023-04-06T12:43:05;16.60;88.30
32614;DHT22;19031;51.400;6.770;2023-04-06T12:45:31;16.50;86.50
32614;DHT22;19031;51.400;6.770;2023-04-06T12:47:57;16.70;88.30
32614;DHT22;19031;51.400;6.770;2023-04-06T12:50:23;16.40;88.10
32614;DHT22;19031;51.400;6.770;2023-04-06T12:52:48;16.40;87.80
32614;DHT22;19031;51.400;6.770;2023-04-06T12:55:14;16.10;86.60
32614;DHT22;19031;51.400;6.770;2023-04-06T12:57:40;15.90;85.50
32614;DHT22;19031;51.400;6.770;2023-04-06T13:00:07;15.80;86.60
32614;DHT22;19031;51.400;6.770;2023-04-06T13:02:33;15.70;86.80
32614;DHT22;19031;51.400;6.770;2023-04-06T13:04:59;15.70;89.40
32614;DHT22;19031;51.400;6.770;2023-04-06T13:07:25;15.60;87.70
32614;DHT22;19031;51.400;6.770;2023-04-06T13:09:51;15.30;90.10
32614;DHT22;19031;51.400;6.770;2023-04-06T13:12:17;15.20;90.10
32614;DHT22;19031;51.400;6.770;2023-04-06T13:14:43;15.10;91.00
32614;DHT22;19031;51.400;6.770;2023-04-06T13:17:09;15.10;92.90
32614;DHT22;19031;51.400;6.770;2023-04-06T13:19:35;15.30;91.80
32614;DHT22;19031;51.400;6.770;2023-04-06T13:22:00;15.20;92.50
32614;DHT22;19031;51.400;6.770;2023-04-06T13:24:26;15.30;91.80
32614;DHT22;19031;51.400;6.770;2023-04-06T13:26:51;15.10;91.80
32614;DHT22;19031;51.400;6.770;2023-04-06T13:29:17;15.10;93.30
32614;DHT22;19031;51.400;6.770;2023-04-06T13:31:43;14.90;93.00
32614;DHT22;19031;51.400;6.770;2023-04-06T13:34:08;14.70;93.80
32614;DHT22;19031;51.400;6.770;2023-04-06T13:36:34;14.60;94.20
32614;DHT22;19031;51.400;6.770;2023-04-06T13:39:00;14.70;96.20
32614;DHT22;19031;51.400;6.770;2023-04-06T13:41:26;14.90;96.50
32614;DHT22;19031;51.400;6.770;2023-04-06T13:43:52;14.80;96.80
32614;DHT22;19031;51.400;6.770;2023-04-06T13:46:17;14.80;97.30
32614;DHT22;19031;51.400;6.770;2023-04-06T13:48:43;14.80;98.40
32614;DHT22;19031;51.400;6.770;2023-04-06T13:51:13;14.30;99.70
32614;DHT22;19031;51.400;6.770;2023-04-06T13:53:40;14.30;99.90
32614;DHT22;19031;51.400;6.770;2023-04-06T13:56:07;14.20;99.90
32614;DHT22;19031;51.400;6.770;2023-04-06T13:58:33;14.10;99.90
32614;DHT22;19031;51.400;6.770;2023-04-06T14:01:06;13.70;99.90
32614;DHT22;19031;51.400;6.770;2023-04-06T14:03:33;13.70;99.90
32614;DHT22;19031;51.400;6.770;2023-04-06T14:05:59;13.30;99.90
32614;DHT22;19031;51.400;6.770;2023-04-06T14:08:25;13.20;99.90
32614;DHT22;19031;51.400;6.770;2023-04-06T14:10:50;13.20;99.90
32614;DHT22;19031;51.400;6.770;2023-04-06T14:13:16;13.00;99.90
32614;DHT22;19031;51.400;6.770;2023-04-06T14:15:42;13.00;99.90
32614;DHT22;19031;51.400;6.770;2023-04-06T14:18:08;13.00;99.90
32614;DHT22;19031;51.400;6.770;2023-04-06T14:20:34;12.90;99.90
32614;DHT22;19031;51.400;6.770;2023-04-06T14:23:03;12.80;99.90
32614;DHT22;19031;51.400;6.770;2023-04-06T14:25:29;12.80;99.90
32614;DHT22;19031;51.400;6.770;2023-04-06T14:27:57;12.90;99.90
32614;DHT22;19031;51.400;6.770;2023-04-06T14:30:22;13.00;99.90
32614;DHT22;19031;51.400;6.770;2023-04-06T14:32:48;12.90;99.90
32614;DHT22;19031;51.400;6.770;2023-04-06T14:35:13;12.80;99.90
32614;DHT22;19031;51.400;6.770;2023-04-06T14:37:39;12.80;99.90
32614;DHT22;19031;51.400;6.770;2023-04-06T14:40:05;12.90;99.90
32614;DHT22;19031;51.400;6.770;2023-04-06T14:42:31;13.00;99.90
32614;DHT22;19031;51.400;6.770;2023-04-06T14:44:57;13.10;99.90
32614;DHT22;19031;51.400;6.770;2023-04-06T14:47:23;13.10;99.90
32614;DHT22;19031;51.400;6.770;2023-04-06T14:49:51;12.90;99.90
32614;DHT22;19031;51.400;6.770;2023-04-06T14:52:24;12.70;99.90
32614;DHT22;19031;51.400;6.770;2023-04-06T14:54:51;12.60;99.90
32614;DHT22;19031;51.400;6.770;2023-04-06T14:57:17;12.50;99.90
32614;DHT22;19031;51.400;6.770;2023-04-06T14:59:42;12.50;99.90
32614;DHT22;19031;51.400;6.770;2023-04-06T15:02:08;12.40;99.90
32614;DHT22;19031;51.400;6.770;2023-04-06T15:04:38;12.30;99.90
32614;DHT22;19031;51.400;6.770;2023-04-06T15:07:04;12.20;99.90
32614;DHT22;19031;51.400;6.770;2023-04-06T15:09:33;12.00;99.90
32614;DHT22;19031;51.400;6.770;2023-04-06T15:12:27;11.90;99.90
32614;DHT22;19031;51.400;6.770;2023-04-06T15:14:54;11.90;99.90
32614;DHT22;19031;51.400;6.770;2023-04-06T15:17:20;11.90;99.90
32614;DHT22;19031;51.400;6.770;2023-04-06T15:19:45;11.80;99.90
32614;DHT22;19031;51.400;6.770;2023-04-06T15:22:11;11.60;99.90
32614;DHT22;19031;51.400;6.770;2023-04-06T15:24:37;11.50;99.90
32614;DHT22;19031;51.400;6.770;2023-04-06T15:27:02;11.40;99.90
32614;DHT22;19031;51.400;6.770;2023-04-06T15:29:51;11.10;99.90
32614;DHT22;19031;51.400;6.770;2023-04-06T15:32:28;10.90;99.90
32614;DHT22;19031;51.400;6.770;2023-04-06T15:35:09;10.90;99.90
32614;DHT22;19031;51.400;6.770;2023-04-06T15:37:42;10.80;99.90
32614;DHT22;19031;51.400;6.770;2023-04-06T15:40:08;10.70;99.90
32614;DHT22;19031;51.400;6.770;2023-04-06T15:42:48;10.70;99.90
32614;DHT22;19031;51.400;6.770;2023-04-06T15:45:44;10.70;99.90
32614;DHT22;19031;51.400;6.770;2023-04-06T15:48:13;10.60;99.90